sensor_id;sensor_type;location;lat;lon;timestamp;pressure;altitude;pressure_sealevel;temperature;humidity
65754;BME280;52488;47.502;18.940;2022-10-16T00:00:03;98538.16;;;13.84;68.88
65754;BME280;52488;47.502;18.940;2022-10-16T00:01:11;98543.66;;;13.84;68.81
65754;BME280;52488;47.502;18.940;2022-10-16T00:02:14;98542.34;;;13.85;68.61
65754;BME280;52488;47.502;18.940;2022-10-16T00:03:17;98538.97;;;13.87;68.40
65754;BME280;52488;47.502;18.940;2022-10-16T00:04:20;98535.38;;;13.84;68.66
65754;BME280;52488;47.502;18.940;2022-10-16T00:05:23;98536.56;;;13.81;68.85
65754;BME280;52488;47.502;18.940;2022-10-16T00:06:27;98537.06;;;13.78;69.10
65754;BME280;52488;47.502;18.940;2022-10-16T00:07:30;98531.38;;;13.76;69.09
65754;BME280;52488;47.502;18.940;2022-10-16T00:08:33;98538.09;;;13.72;69.20
65754;BME280;52488;47.502;18.940;2022-10-16T00:09:36;98531.25;;;13.73;69.25
65754;BME280;52488;47.502;18.940;2022-10-16T00:10:39;98531.88;;;13.72;69.50
65754;BME280;52488;47.502;18.940;2022-10-16T00:11:42;98533.31;;;13.73;69.36
65754;BME280;52488;47.502;18.940;2022-10-16T00:12:45;98530.53;;;13.73;69.37
65754;BME280;52488;47.502;18.940;2022-10-16T00:13:51;98531.25;;;13.73;69.04
65754;BME280;52488;47.502;18.940;2022-10-16T00:14:54;98534.97;;;13.66;69.26
65754;BME280;52488;47.502;18.940;2022-10-16T00:15:58;98531.22;;;13.62;69.62
65754;BME280;52488;47.502;18.940;2022-10-16T00:17:01;98525.97;;;13.66;69.48
65754;BME280;52488;47.502;18.940;2022-10-16T00:18:05;98523.59;;;13.72;69.00
65754;BME280;52488;47.502;18.940;2022-10-16T00:19:09;98522.97;;;13.73;68.53
65754;BME280;52488;47.502;18.940;2022-10-16T00:20:13;98525.13;;;13.75;68.44
65754;BME280;52488;47.502;18.940;2022-10-16T00:21:18;98532.09;;;13.76;68.33
65754;BME280;52488;47.502;18.940;2022-10-16T00:22:22;98538.56;;;13.69;68.52
65754;BME280;52488;47.502;18.940;2022-10-16T00:23:25;98534.81;;;13.64;68.89
65754;BME280;52488;47.502;18.940;2022-10-16T00:24:28;98545.63;;;13.60;68.98
65754;BME280;52488;47.502;18.940;2022-10-16T00:25:32;98539.34;;;13.60;69.11
65754;BME280;52488;47.502;18.940;2022-10-16T00:26:36;98544.03;;;13.57;69.33
65754;BME280;52488;47.502;18.940;2022-10-16T00:27:39;98544.50;;;13.54;69.74
65754;BME280;52488;47.502;18.940;2022-10-16T00:28:42;98543.03;;;13.53;69.47
65754;BME280;52488;47.502;18.940;2022-10-16T00:29:44;98544.38;;;13.52;69.56
65754;BME280;52488;47.502;18.940;2022-10-16T00:30:47;98550.16;;;13.56;69.29
65754;BME280;52488;47.502;18.940;2022-10-16T00:31:50;98547.41;;;13.56;69.26
65754;BME280;52488;47.502;18.940;2022-10-16T00:32:53;98549.16;;;13.51;69.54
65754;BME280;52488;47.502;18.940;2022-10-16T00:33:56;98553.97;;;13.51;69.48
65754;BME280;52488;47.502;18.940;2022-10-16T00:34:58;98552.19;;;13.55;69.22
65754;BME280;52488;47.502;18.940;2022-10-16T00:36:02;98548.94;;;13.59;68.70
65754;BME280;52488;47.502;18.940;2022-10-16T00:37:05;98556.97;;;13.55;68.89
65754;BME280;52488;47.502;18.940;2022-10-16T00:38:08;98548.56;;;13.53;69.03
65754;BME280;52488;47.502;18.940;2022-10-16T00:39:11;98552.53;;;13.50;69.40
65754;BME280;52488;47.502;18.940;2022-10-16T00:40:13;98553.69;;;13.46;69.76
65754;BME280;52488;47.502;18.940;2022-10-16T00:41:17;98552.25;;;13.45;69.92
65754;BME280;52488;47.502;18.940;2022-10-16T00:42:19;98558.94;;;13.42;70.02
65754;BME280;52488;47.502;18.940;2022-10-16T00:43:42;98552.72;;;13.42;70.21
65754;BME280;52488;47.502;18.940;2022-10-16T00:44:52;98553.44;;;13.42;70.29
65754;BME280;52488;47.502;18.940;2022-10-16T00:45:56;98551.16;;;13.39;70.39
65754;BME280;52488;47.502;18.940;2022-10-16T00:46:59;98554.97;;;13.34;70.93
65754;BME280;52488;47.502;18.940;2022-10-16T00:48:01;98548.00;;;13.33;70.78
65754;BME280;52488;47.502;18.940;2022-10-16T00:49:15;98544.50;;;13.32;70.92
65754;BME280;52488;47.502;18.940;2022-10-16T00:50:26;98557.00;;;13.33;70.86
65754;BME280;52488;47.502;18.940;2022-10-16T00:51:34;98555.28;;;13.28;70.80
65754;BME280;52488;47.502;18.940;2022-10-16T00:52:39;98555.84;;;13.27;70.79
65754;BME280;52488;47.502;18.940;2022-10-16T00:53:44;98551.22;;;13.19;70.97
65754;BME280;52488;47.502;18.940;2022-10-16T00:54:49;98554.72;;;13.20;70.89
65754;BME280;52488;47.502;18.940;2022-10-16T00:55:53;98567.97;;;13.12;70.89
65754;BME280;52488;47.502;18.940;2022-10-16T00:56:59;98566.13;;;13.05;71.65
65754;BME280;52488;47.502;18.940;2022-10-16T00:58:02;98565.16;;;13.00;72.52
65754;BME280;52488;47.502;18.940;2022-10-16T00:59:14;98558.63;;;12.95;72.46
65754;BME280;52488;47.502;18.940;2022-10-16T01:00:21;98567.63;;;12.96;72.31
65754;BME280;52488;47.502;18.940;2022-10-16T01:01:24;98560.97;;;12.89;72.43
65754;BME280;52488;47.502;18.940;2022-10-16T01:02:28;98569.81;;;12.88;72.42
65754;BME280;52488;47.502;18.940;2022-10-16T01:03:33;98569.41;;;12.82;72.55
65754;BME280;52488;47.502;18.940;2022-10-16T01:04:42;98572.66;;;12.78;72.72
65754;BME280;52488;47.502;18.940;2022-10-16T01:08:42;98578.50;;;12.63;73.22
65754;BME280;52488;47.502;18.940;2022-10-16T01:11:27;98577.81;;;12.53;73.54
65754;BME280;52488;47.502;18.940;2022-10-16T01:12:38;98575.06;;;12.43;74.16
65754;BME280;52488;47.502;18.940;2022-10-16T01:13:53;98578.84;;;12.38;74.12
65754;BME280;52488;47.502;18.940;2022-10-16T01:15:08;98576.97;;;12.31;74.39
65754;BME280;52488;47.502;18.940;2022-10-16T01:16:34;98574.09;;;12.29;74.17
65754;BME280;52488;47.502;18.940;2022-10-16T01:17:45;98579.91;;;12.23;74.52
65754;BME280;52488;47.502;18.940;2022-10-16T01:18:55;98582.81;;;12.15;74.86
65754;BME280;52488;47.502;18.940;2022-10-16T01:20:05;98587.47;;;12.03;75.16
65754;BME280;52488;47.502;18.940;2022-10-16T01:21:20;98584.28;;;11.97;75.61
65754;BME280;52488;47.502;18.940;2022-10-16T01:22:26;98584.72;;;11.94;75.53
65754;BME280;52488;47.502;18.940;2022-10-16T01:23:49;98587.91;;;11.90;75.72
65754;BME280;52488;47.502;18.940;2022-10-16T01:24:55;98591.37;;;11.91;75.35
65754;BME280;52488;47.502;18.940;2022-10-16T01:27:49;98592.81;;;11.72;76.25
65754;BME280;52488;47.502;18.940;2022-10-16T01:28:57;98595.84;;;11.76;76.00
65754;BME280;52488;47.502;18.940;2022-10-16T01:30:13;98588.75;;;11.63;76.49
65754;BME280;52488;47.502;18.940;2022-10-16T01:31:24;98594.38;;;11.56;76.67
65754;BME280;52488;47.502;18.940;2022-10-16T01:32:43;98594.09;;;11.52;76.86
65754;BME280;52488;47.502;18.940;2022-10-16T01:34:17;98587.44;;;11.45;77.45
65754;BME280;52488;47.502;18.940;2022-10-16T01:35:32;98584.22;;;11.39;77.35
65754;BME280;52488;47.502;18.940;2022-10-16T01:36:41;98578.72;;;11.39;77.39
65754;BME280;52488;47.502;18.940;2022-10-16T01:38:00;98591.59;;;11.36;77.35
65754;BME280;52488;47.502;18.940;2022-10-16T01:39:08;98589.44;;;11.35;77.42
65754;BME280;52488;47.502;18.940;2022-10-16T01:40:16;98583.63;;;11.31;77.66
65754;BME280;52488;47.502;18.940;2022-10-16T01:41:37;98585.50;;;11.28;77.74
65754;BME280;52488;47.502;18.940;2022-10-16T01:42:46;98582.59;;;11.26;77.81
65754;BME280;52488;47.502;18.940;2022-10-16T01:44:01;98582.19;;;11.30;77.68
65754;BME280;52488;47.502;18.940;2022-10-16T01:45:07;98585.78;;;11.32;77.60
65754;BME280;52488;47.502;18.940;2022-10-16T01:46:17;98588.41;;;11.30;77.57
65754;BME280;52488;47.502;18.940;2022-10-16T01:47:23;98592.03;;;11.33;77.56
65754;BME280;52488;47.502;18.940;2022-10-16T01:48:29;98591.16;;;11.30;77.57
65754;BME280;52488;47.502;18.940;2022-10-16T01:49:34;98585.50;;;11.28;77.66
65754;BME280;52488;47.502;18.940;2022-10-16T01:50:41;98585.50;;;11.28;77.69
65754;BME280;52488;47.502;18.940;2022-10-16T01:51:48;98594.19;;;11.25;77.85
65754;BME280;52488;47.502;18.940;2022-10-16T01:52:55;98594.75;;;11.23;77.94
65754;BME280;52488;47.502;18.940;2022-10-16T01:54:01;98597.50;;;11.23;77.65
65754;BME280;52488;47.502;18.940;2022-10-16T01:55:06;98592.75;;;11.24;77.62
65754;BME280;52488;47.502;18.940;2022-10-16T01:56:12;98602.84;;;11.21;77.58
65754;BME280;52488;47.502;18.940;2022-10-16T01:57:19;98598.81;;;11.22;77.60
65754;BME280;52488;47.502;18.940;2022-10-16T01:58:25;98607.63;;;11.21;77.53
65754;BME280;52488;47.502;18.940;2022-10-16T01:59:31;98609.50;;;11.18;77.37
65754;BME280;52488;47.502;18.940;2022-10-16T02:00:38;98610.50;;;11.13;77.83
65754;BME280;52488;47.502;18.940;2022-10-16T02:01:47;98617.44;;;11.14;77.56
65754;BME280;52488;47.502;18.940;2022-10-16T02:02:53;98612.13;;;11.16;77.26
65754;BME280;52488;47.502;18.940;2022-10-16T02:04:01;98609.19;;;11.14;77.10
65754;BME280;52488;47.502;18.940;2022-10-16T02:05:18;98610.50;;;11.13;77.35
65754;BME280;52488;47.502;18.940;2022-10-16T02:06:24;98608.88;;;11.10;77.46
65754;BME280;52488;47.502;18.940;2022-10-16T02:07:28;98599.37;;;11.11;77.35
65754;BME280;52488;47.502;18.940;2022-10-16T02:08:31;98600.50;;;11.08;77.49
65754;BME280;52488;47.502;18.940;2022-10-16T02:09:35;98610.62;;;11.05;77.59
65754;BME280;52488;47.502;18.940;2022-10-16T02:10:38;98612.94;;;11.09;77.33
65754;BME280;52488;47.502;18.940;2022-10-16T02:11:41;98612.66;;;11.05;77.62
65754;BME280;52488;47.502;18.940;2022-10-16T02:14:29;98604.41;;;11.05;77.39
65754;BME280;52488;47.502;18.940;2022-10-16T02:15:32;98603.41;;;11.10;76.97
65754;BME280;52488;47.502;18.940;2022-10-16T02:16:43;98608.16;;;11.09;76.81
65754;BME280;52488;47.502;18.940;2022-10-16T02:17:47;98607.56;;;11.01;77.10
65754;BME280;52488;47.502;18.940;2022-10-16T02:18:49;98614.94;;;10.99;77.38
65754;BME280;52488;47.502;18.940;2022-10-16T02:19:54;98605.97;;;10.98;77.38
65754;BME280;52488;47.502;18.940;2022-10-16T02:22:28;98604.94;;;10.94;77.67
65754;BME280;52488;47.502;18.940;2022-10-16T02:23:56;98611.13;;;10.84;77.89
65754;BME280;52488;47.502;18.940;2022-10-16T02:25:17;98607.03;;;10.76;78.59
65754;BME280;52488;47.502;18.940;2022-10-16T02:26:29;98610.75;;;10.71;78.83
65754;BME280;52488;47.502;18.940;2022-10-16T02:27:41;98610.81;;;10.80;78.42
65754;BME280;52488;47.502;18.940;2022-10-16T02:28:53;98614.41;;;10.73;78.55
65754;BME280;52488;47.502;18.940;2022-10-16T02:31:12;98610.16;;;10.63;79.17
65754;BME280;52488;47.502;18.940;2022-10-16T02:32:23;98614.09;;;10.69;78.82
65754;BME280;52488;47.502;18.940;2022-10-16T02:33:28;98613.63;;;10.63;78.96
65754;BME280;52488;47.502;18.940;2022-10-16T02:34:33;98608.84;;;10.64;78.99
65754;BME280;52488;47.502;18.940;2022-10-16T02:35:37;98610.62;;;10.69;78.94
65754;BME280;52488;47.502;18.940;2022-10-16T02:36:42;98612.31;;;10.64;78.87
65754;BME280;52488;47.502;18.940;2022-10-16T02:37:46;98616.22;;;10.61;78.98
65754;BME280;52488;47.502;18.940;2022-10-16T02:38:50;98622.13;;;10.57;79.21
65754;BME280;52488;47.502;18.940;2022-10-16T02:39:56;98621.09;;;10.53;79.35
65754;BME280;52488;47.502;18.940;2022-10-16T02:40:59;98620.75;;;10.49;79.48
65754;BME280;52488;47.502;18.940;2022-10-16T02:42:03;98620.75;;;10.49;79.55
65754;BME280;52488;47.502;18.940;2022-10-16T02:43:06;98621.19;;;10.45;79.66
65754;BME280;52488;47.502;18.940;2022-10-16T02:44:09;98622.50;;;10.44;79.77
65754;BME280;52488;47.502;18.940;2022-10-16T02:45:12;98621.91;;;10.46;79.72
65754;BME280;52488;47.502;18.940;2022-10-16T02:46:20;98621.03;;;10.43;79.79
65754;BME280;52488;47.502;18.940;2022-10-16T02:47:24;98616.69;;;10.40;79.88
65754;BME280;52488;47.502;18.940;2022-10-16T02:48:27;98624.03;;;10.38;80.09
65754;BME280;52488;47.502;18.940;2022-10-16T02:49:30;98618.25;;;10.34;80.24
65754;BME280;52488;47.502;18.940;2022-10-16T02:50:33;98620.09;;;10.31;80.52
65754;BME280;52488;47.502;18.940;2022-10-16T02:51:36;98620.66;;;10.29;80.62
65754;BME280;52488;47.502;18.940;2022-10-16T02:52:39;98633.50;;;10.27;80.81
65754;BME280;52488;47.502;18.940;2022-10-16T02:53:42;98627.44;;;10.28;80.68
65754;BME280;52488;47.502;18.940;2022-10-16T02:54:45;98625.09;;;10.25;80.78
65754;BME280;52488;47.502;18.940;2022-10-16T02:55:48;98622.50;;;10.27;80.79
65754;BME280;52488;47.502;18.940;2022-10-16T02:56:52;98628.75;;;10.27;80.75
65754;BME280;52488;47.502;18.940;2022-10-16T02:57:55;98628.91;;;10.29;80.58
65754;BME280;52488;47.502;18.940;2022-10-16T02:58:58;98623.97;;;10.28;80.57
65754;BME280;52488;47.502;18.940;2022-10-16T03:00:04;98624.69;;;10.28;80.73
65754;BME280;52488;47.502;18.940;2022-10-16T03:01:08;98622.34;;;10.25;80.88
65754;BME280;52488;47.502;18.940;2022-10-16T03:02:11;98620.25;;;10.33;80.58
65754;BME280;52488;47.502;18.940;2022-10-16T03:03:14;98622.37;;;10.52;79.33
65754;BME280;52488;47.502;18.940;2022-10-16T03:04:17;98622.53;;;10.54;78.96
65754;BME280;52488;47.502;18.940;2022-10-16T03:05:20;98624.34;;;10.69;78.22
65754;BME280;52488;47.502;18.940;2022-10-16T03:06:26;98622.97;;;10.77;77.40
65754;BME280;52488;47.502;18.940;2022-10-16T03:07:29;98624.09;;;10.74;77.49
65754;BME280;52488;47.502;18.940;2022-10-16T03:08:32;98633.22;;;10.77;77.46
65754;BME280;52488;47.502;18.940;2022-10-16T03:09:35;98634.09;;;10.79;77.35
65754;BME280;52488;47.502;18.940;2022-10-16T03:10:38;98632.66;;;10.78;77.49
65754;BME280;52488;47.502;18.940;2022-10-16T03:11:41;98635.81;;;10.75;77.75
65754;BME280;52488;47.502;18.940;2022-10-16T03:12:44;98635.09;;;10.74;78.00
65754;BME280;52488;47.502;18.940;2022-10-16T03:13:47;98637.69;;;10.72;78.08
65754;BME280;52488;47.502;18.940;2022-10-16T03:14:50;98638.81;;;10.69;78.14
65754;BME280;52488;47.502;18.940;2022-10-16T03:15:53;98630.97;;;10.66;78.45
65754;BME280;52488;47.502;18.940;2022-10-16T03:16:56;98640.25;;;10.70;78.28
65754;BME280;52488;47.502;18.940;2022-10-16T03:17:59;98638.56;;;10.75;77.76
65754;BME280;52488;47.502;18.940;2022-10-16T03:19:02;98632.03;;;10.70;77.55
65754;BME280;52488;47.502;18.940;2022-10-16T03:20:05;98630.25;;;10.65;77.87
65754;BME280;52488;47.502;18.940;2022-10-16T03:21:09;98639.97;;;10.66;77.84
65754;BME280;52488;47.502;18.940;2022-10-16T03:22:11;98637.78;;;10.65;77.88
65754;BME280;52488;47.502;18.940;2022-10-16T03:23:14;98639.81;;;10.64;77.89
65754;BME280;52488;47.502;18.940;2022-10-16T03:24:17;98644.72;;;10.66;77.84
65754;BME280;52488;47.502;18.940;2022-10-16T03:25:20;98642.72;;;10.66;77.72
65754;BME280;52488;47.502;18.940;2022-10-16T03:26:23;98647.47;;;10.66;77.64
65754;BME280;52488;47.502;18.940;2022-10-16T03:27:26;98645.63;;;10.68;77.66
65754;BME280;52488;47.502;18.940;2022-10-16T03:28:30;98645.94;;;10.72;77.33
65754;BME280;52488;47.502;18.940;2022-10-16T03:29:33;98641.00;;;10.71;77.44
65754;BME280;52488;47.502;18.940;2022-10-16T03:30:36;98645.03;;;10.70;77.58
65754;BME280;52488;47.502;18.940;2022-10-16T03:31:38;98644.16;;;10.67;77.66
65754;BME280;52488;47.502;18.940;2022-10-16T03:32:42;98646.75;;;10.65;77.53
65754;BME280;52488;47.502;18.940;2022-10-16T03:33:46;98655.56;;;10.64;77.75
65754;BME280;52488;47.502;18.940;2022-10-16T03:34:52;98654.13;;;10.63;77.76
65754;BME280;52488;47.502;18.940;2022-10-16T03:35:56;98649.91;;;10.62;78.03
65754;BME280;52488;47.502;18.940;2022-10-16T03:36:59;98655.09;;;10.57;78.21
65754;BME280;52488;47.502;18.940;2022-10-16T03:38:02;98653.06;;;10.58;78.16
65754;BME280;52488;47.502;18.940;2022-10-16T03:39:05;98652.94;;;10.56;78.08
65754;BME280;52488;47.502;18.940;2022-10-16T03:40:08;98651.31;;;10.53;78.21
65754;BME280;52488;47.502;18.940;2022-10-16T03:41:11;98656.81;;;10.53;78.17
65754;BME280;52488;47.502;18.940;2022-10-16T03:42:14;98651.72;;;10.49;78.34
65754;BME280;52488;47.502;18.940;2022-10-16T03:43:17;98653.91;;;10.51;78.23
65754;BME280;52488;47.502;18.940;2022-10-16T03:44:20;98651.41;;;10.45;78.22
65754;BME280;52488;47.502;18.940;2022-10-16T03:45:23;98655.28;;;10.42;78.57
65754;BME280;52488;47.502;18.940;2022-10-16T03:46:27;98649.63;;;10.40;78.52
65754;BME280;52488;47.502;18.940;2022-10-16T03:47:29;98651.22;;;10.43;78.51
65754;BME280;52488;47.502;18.940;2022-10-16T03:48:35;98650.94;;;10.39;78.58
65754;BME280;52488;47.502;18.940;2022-10-16T03:49:38;98650.22;;;10.39;78.60
65754;BME280;52488;47.502;18.940;2022-10-16T03:50:41;98656.19;;;10.45;78.35
65754;BME280;52488;47.502;18.940;2022-10-16T03:51:44;98644.87;;;10.41;78.30
65754;BME280;52488;47.502;18.940;2022-10-16T03:52:47;98654.56;;;10.42;78.27
65754;BME280;52488;47.502;18.940;2022-10-16T03:53:50;98656.44;;;10.39;78.21
65754;BME280;52488;47.502;18.940;2022-10-16T03:54:52;98652.78;;;10.37;78.47
65754;BME280;52488;47.502;18.940;2022-10-16T03:55:55;98653.84;;;10.41;78.30
65754;BME280;52488;47.502;18.940;2022-10-16T03:56:58;98654.72;;;10.44;77.88
65754;BME280;52488;47.502;18.940;2022-10-16T03:58:01;98652.00;;;10.44;77.80
65754;BME280;52488;47.502;18.940;2022-10-16T03:59:04;98653.44;;;10.45;77.75
65754;BME280;52488;47.502;18.940;2022-10-16T04:00:08;98660.94;;;10.44;77.70
65754;BME280;52488;47.502;18.940;2022-10-16T04:01:11;98652.72;;;10.44;77.56
65754;BME280;52488;47.502;18.940;2022-10-16T04:02:14;98662.97;;;10.44;77.57
65754;BME280;52488;47.502;18.940;2022-10-16T04:03:17;98657.47;;;10.44;77.47
65754;BME280;52488;47.502;18.940;2022-10-16T04:04:21;98655.28;;;10.42;77.58
65754;BME280;52488;47.502;18.940;2022-10-16T04:05:24;98657.47;;;10.44;77.62
65754;BME280;52488;47.502;18.940;2022-10-16T04:06:27;98660.06;;;10.42;77.90
65754;BME280;52488;47.502;18.940;2022-10-16T04:07:30;98663.53;;;10.42;78.11
65754;BME280;52488;47.502;18.940;2022-10-16T04:08:34;98661.69;;;10.45;77.94
65754;BME280;52488;47.502;18.940;2022-10-16T04:09:39;98666.75;;;10.48;77.78
65754;BME280;52488;47.502;18.940;2022-10-16T04:10:43;98661.81;;;10.47;78.12
65754;BME280;52488;47.502;18.940;2022-10-16T04:11:46;98665.28;;;10.47;78.03
65754;BME280;52488;47.502;18.940;2022-10-16T04:12:49;98662.28;;;10.53;77.87
65754;BME280;52488;47.502;18.940;2022-10-16T04:13:52;98668.25;;;10.59;77.50
65754;BME280;52488;47.502;18.940;2022-10-16T04:14:55;98666.81;;;10.58;77.57
65754;BME280;52488;47.502;18.940;2022-10-16T04:15:58;98674.78;;;10.64;77.41
65754;BME280;52488;47.502;18.940;2022-10-16T04:17:01;98665.56;;;10.69;77.12
65754;BME280;52488;47.502;18.940;2022-10-16T04:18:04;98669.94;;;10.72;76.74
65754;BME280;52488;47.502;18.940;2022-10-16T04:19:09;98669.03;;;10.69;76.68
65754;BME280;52488;47.502;18.940;2022-10-16T04:20:12;98672.69;;;10.72;76.60
65754;BME280;52488;47.502;18.940;2022-10-16T04:21:15;98664.94;;;10.88;75.40
65754;BME280;52488;47.502;18.940;2022-10-16T04:22:18;98666.41;;;10.89;75.30
65754;BME280;52488;47.502;18.940;2022-10-16T04:23:21;98668.41;;;10.88;75.08
65754;BME280;52488;47.502;18.940;2022-10-16T04:24:25;98667.28;;;10.91;75.05
65754;BME280;52488;47.502;18.940;2022-10-16T04:25:28;98673.38;;;10.90;75.02
65754;BME280;52488;47.502;18.940;2022-10-16T04:26:31;98676.56;;;10.96;74.89
65754;BME280;52488;47.502;18.940;2022-10-16T04:27:34;98675.28;;;10.97;74.56
65754;BME280;52488;47.502;18.940;2022-10-16T04:28:37;98668.91;;;10.94;74.61
65754;BME280;52488;47.502;18.940;2022-10-16T04:29:40;98671.78;;;10.96;74.50
65754;BME280;52488;47.502;18.940;2022-10-16T04:30:46;98678.28;;;10.91;74.62
65754;BME280;52488;47.502;18.940;2022-10-16T04:31:49;98675.37;;;10.89;74.71
65754;BME280;52488;47.502;18.940;2022-10-16T04:32:53;98672.06;;;10.91;74.58
65754;BME280;52488;47.502;18.940;2022-10-16T04:33:56;98674.91;;;10.83;74.92
65754;BME280;52488;47.502;18.940;2022-10-16T04:34:59;98672.56;;;10.79;75.14
65754;BME280;52488;47.502;18.940;2022-10-16T04:36:03;98676.06;;;10.80;75.12
65754;BME280;52488;47.502;18.940;2022-10-16T04:37:06;98673.41;;;10.72;75.51
65754;BME280;52488;47.502;18.940;2022-10-16T04:38:09;98670.19;;;10.66;75.84
65754;BME280;52488;47.502;18.940;2022-10-16T04:39:12;98670.59;;;10.63;76.01
65754;BME280;52488;47.502;18.940;2022-10-16T04:40:15;98672.16;;;10.56;76.61
65754;BME280;52488;47.502;18.940;2022-10-16T04:41:18;98669.22;;;10.54;76.37
65754;BME280;52488;47.502;18.940;2022-10-16T04:42:21;98672.41;;;10.50;76.63
65754;BME280;52488;47.502;18.940;2022-10-16T04:43:24;98671.25;;;10.53;76.68
65754;BME280;52488;47.502;18.940;2022-10-16T04:44:27;98666.75;;;10.48;76.80
65754;BME280;52488;47.502;18.940;2022-10-16T04:45:30;98673.78;;;10.42;77.13
65754;BME280;52488;47.502;18.940;2022-10-16T04:46:33;98666.53;;;10.37;77.40
65754;BME280;52488;47.502;18.940;2022-10-16T04:47:36;98676.78;;;10.36;77.40
65754;BME280;52488;47.502;18.940;2022-10-16T04:48:39;98678.66;;;10.34;77.40
65754;BME280;52488;47.502;18.940;2022-10-16T04:49:42;98672.25;;;10.31;77.38
65754;BME280;52488;47.502;18.940;2022-10-16T04:50:45;98680.34;;;10.29;77.42
65754;BME280;52488;47.502;18.940;2022-10-16T04:51:53;98684.78;;;10.24;77.52
65754;BME280;52488;47.502;18.940;2022-10-16T04:52:55;98685.16;;;10.21;77.71
65754;BME280;52488;47.502;18.940;2022-10-16T04:53:59;98682.84;;;10.17;78.21
65754;BME280;52488;47.502;18.940;2022-10-16T04:55:02;98686.12;;;10.16;78.16
65754;BME280;52488;47.502;18.940;2022-10-16T04:56:05;98683.81;;;10.12;78.25
65754;BME280;52488;47.502;18.940;2022-10-16T04:57:08;98687.84;;;10.11;78.51
65754;BME280;52488;47.502;18.940;2022-10-16T04:58:11;98683.81;;;10.12;78.53
65754;BME280;52488;47.502;18.940;2022-10-16T04:59:14;98682.75;;;10.08;78.68
65754;BME280;52488;47.502;18.940;2022-10-16T05:00:17;98682.66;;;9.98;79.15
65754;BME280;52488;47.502;18.940;2022-10-16T05:01:24;98678.31;;;9.95;79.44
65754;BME280;52488;47.502;18.940;2022-10-16T05:02:27;98684.28;;;10.01;79.23
65754;BME280;52488;47.502;18.940;2022-10-16T05:03:29;98674.59;;;10.00;79.21
65754;BME280;52488;47.502;18.940;2022-10-16T05:04:37;98677.16;;;9.98;79.30
65754;BME280;52488;47.502;18.940;2022-10-16T05:05:44;98676.28;;;9.95;79.50
65754;BME280;52488;47.502;18.940;2022-10-16T05:06:48;98675.47;;;10.02;79.31
65754;BME280;52488;47.502;18.940;2022-10-16T05:07:51;98673.63;;;10.05;79.19
65754;BME280;52488;47.502;18.940;2022-10-16T05:08:54;98669.84;;;10.00;79.36
65754;BME280;52488;47.502;18.940;2022-10-16T05:09:57;98671.69;;;9.98;79.52
65754;BME280;52488;47.502;18.940;2022-10-16T05:11:00;98675.16;;;9.98;79.53
65754;BME280;52488;47.502;18.940;2022-10-16T05:12:07;98677.16;;;9.98;79.46
65754;BME280;52488;47.502;18.940;2022-10-16T05:13:09;98675.87;;;9.99;79.48
65754;BME280;52488;47.502;18.940;2022-10-16T05:14:13;98672.59;;;10.00;79.29
65754;BME280;52488;47.502;18.940;2022-10-16T05:15:15;98675.87;;;9.99;79.29
65754;BME280;52488;47.502;18.940;2022-10-16T05:16:18;98679.53;;;10.01;79.34
65754;BME280;52488;47.502;18.940;2022-10-16T05:17:21;98681.31;;;10.24;78.08
65754;BME280;52488;47.502;18.940;2022-10-16T05:18:25;98684.78;;;10.24;78.00
65754;BME280;52488;47.502;18.940;2022-10-16T05:19:28;98686.69;;;10.49;76.59
65754;BME280;52488;47.502;18.940;2022-10-16T05:20:31;98688.63;;;10.56;76.23
65754;BME280;52488;47.502;18.940;2022-10-16T05:21:34;98693.97;;;10.54;76.43
65754;BME280;52488;47.502;18.940;2022-10-16T05:22:37;98691.38;;;10.56;76.38
65754;BME280;52488;47.502;18.940;2022-10-16T05:23:40;98692.91;;;10.67;75.80
65754;BME280;52488;47.502;18.940;2022-10-16T05:24:43;98690.56;;;10.63;75.74
65754;BME280;52488;47.502;18.940;2022-10-16T05:25:54;98698.19;;;10.55;76.30
65754;BME280;52488;47.502;18.940;2022-10-16T05:27:01;98698.34;;;10.57;76.23
65754;BME280;52488;47.502;18.940;2022-10-16T05:28:04;98697.84;;;10.51;76.71
65754;BME280;52488;47.502;18.940;2022-10-16T05:29:07;98702.63;;;10.50;76.76
65754;BME280;52488;47.502;18.940;2022-10-16T05:30:10;98709.09;;;10.45;77.21
65754;BME280;52488;47.502;18.940;2022-10-16T05:31:21;98713.13;;;10.44;77.29
65754;BME280;52488;47.502;18.940;2022-10-16T05:32:24;98712.97;;;10.42;77.36
65754;BME280;52488;47.502;18.940;2022-10-16T05:33:27;98714.41;;;10.43;77.46
65754;BME280;52488;47.502;18.940;2022-10-16T05:34:30;98708.03;;;10.41;77.53
65754;BME280;52488;47.502;18.940;2022-10-16T05:35:33;98706.25;;;10.36;77.80
65754;BME280;52488;47.502;18.940;2022-10-16T05:36:36;98709.59;;;10.34;77.98
65754;BME280;52488;47.502;18.940;2022-10-16T05:37:39;98708.13;;;10.33;78.05
65754;BME280;52488;47.502;18.940;2022-10-16T05:38:42;98708.53;;;10.29;78.71
65754;BME280;52488;47.502;18.940;2022-10-16T05:39:49;98704.87;;;10.27;78.77
65754;BME280;52488;47.502;18.940;2022-10-16T05:40:52;98704.34;;;10.28;78.59
65754;BME280;52488;47.502;18.940;2022-10-16T05:41:55;98703.44;;;10.26;78.77
65754;BME280;52488;47.502;18.940;2022-10-16T05:42:58;98694.66;;;10.27;78.67
65754;BME280;52488;47.502;18.940;2022-10-16T05:44:04;98701.75;;;10.30;78.26
65754;BME280;52488;47.502;18.940;2022-10-16T05:45:09;98696.97;;;10.31;78.17
65754;BME280;52488;47.502;18.940;2022-10-16T05:46:15;98706.37;;;10.28;78.38
65754;BME280;52488;47.502;18.940;2022-10-16T05:47:18;98698.66;;;10.26;78.63
65754;BME280;52488;47.502;18.940;2022-10-16T05:48:23;98701.41;;;10.26;78.62
65754;BME280;52488;47.502;18.940;2022-10-16T05:49:26;98700.88;;;10.28;78.51
65754;BME280;52488;47.502;18.940;2022-10-16T05:50:29;98710.38;;;10.27;78.60